Time,TemperatureF,DewpointF,PressureIn,WindDirection,WindDirectionDegrees,WindSpeedMPH,WindSpeedGustMPH,Humidity,HourlyPrecipIn,Conditions,Clouds,dailyrainin,SoftwareType,DateUTC
2013-05-31 00:02:00,74.0,68.0,30.09,ENE,76,8.0,11.0,81,1.37,,,-99.99,,2013-05-31 04:02:00,
2013-05-31 00:12:00,74.0,68.0,30.09,ENE,76,8.0,11.0,81,1.37,,,-99.99,,2013-05-31 04:12:00,
2013-05-31 00:22:00,73.0,67.0,30.09,East,94,8.0,12.0,81,1.37,,,-99.99,,2013-05-31 04:22:00,
2013-05-31 00:33:00,73.0,66.0,30.09,ENE,73,8.0,12.0,80,1.37,,,-99.99,,2013-05-31 04:33:00,
2013-05-31 00:42:00,73.0,66.0,30.09,ENE,73,8.0,12.0,80,1.37,,,-99.99,,2013-05-31 04:42:00,
2013-05-31 00:53:00,73.0,67.0,30.10,East,83,7.0,10.0,81,1.37,,,-99.99,,2013-05-31 04:53:00,
2013-05-31 01:02:00,73.0,68.0,30.10,ENE,73,7.0,10.0,83,1.37,,,-99.99,,2013-05-31 05:02:00,
2013-05-31 01:12:00,73.0,68.0,30.09,ENE,75,7.0,10.0,84,1.37,,,-99.99,,2013-05-31 05:12:00,
2013-05-31 01:22:00,73.0,68.0,30.09,ENE,75,7.0,10.0,84,1.37,,,-99.99,,2013-05-31 05:22:00,
2013-05-31 01:32:00,72.0,67.0,30.09,ENE,70,6.0,9.0,84,1.37,,,-99.99,,2013-05-31 05:32:00,
2013-05-31 01:42:00,72.0,67.0,30.09,ENE,70,6.0,9.0,84,1.37,,,-99.99,,2013-05-31 05:42:00,
2013-05-31 01:52:00,72.0,67.0,30.09,East,86,7.0,11.0,85,1.37,,,-99.99,,2013-05-31 05:52:00,
2013-05-31 02:02:00,72.0,67.0,30.09,East,84,6.0,10.0,85,1.37,,,-99.99,,2013-05-31 06:02:00,
2013-05-31 02:12:00,72.0,67.0,30.09,East,84,6.0,10.0,85,1.37,,,-99.99,,2013-05-31 06:12:00,
2013-05-31 02:22:00,72.0,68.0,30.09,ENE,77,5.0,9.0,86,1.37,,,-99.99,,2013-05-31 06:22:00,
2013-05-31 02:32:00,72.0,68.0,30.07,ENE,66,5.0,9.0,87,1.37,,,-99.99,,2013-05-31 06:32:00,
2013-05-31 02:41:00,71.0,68.0,30.07,East,87,5.0,7.0,90,1.37,,,-99.99,,2013-05-31 06:41:00,
2013-05-31 02:52:00,71.0,68.0,30.07,East,87,5.0,7.0,90,1.37,,,-99.99,,2013-05-31 06:52:00,
2013-05-31 03:02:00,71.0,69.0,30.06,ENE,75,5.0,8.0,93,1.37,,,-99.99,,2013-05-31 07:02:00,
2013-05-31 03:11:00,71.0,69.0,30.06,ENE,77,7.0,10.0,95,1.37,,,-99.99,,2013-05-31 07:11:00,
2013-05-31 03:21:00,71.0,69.0,30.06,ENE,77,7.0,10.0,95,1.37,,,-99.99,,2013-05-31 07:21:00,
2013-05-31 03:32:00,71.0,69.0,30.05,ENE,73,8.0,11.0,95,1.37,,,-99.99,,2013-05-31 07:32:00,
2013-05-31 03:41:00,71.0,69.0,30.05,ENE,73,8.0,11.0,95,1.37,,,-99.99,,2013-05-31 07:41:00,
2013-05-31 03:53:00,71.0,70.0,30.05,East,79,6.0,10.0,96,1.37,,,-99.99,,2013-05-31 07:53:00,
2013-05-31 04:02:00,71.0,70.0,30.05,East,83,7.0,10.0,96,1.37,,,-99.99,,2013-05-31 08:02:00,
2013-05-31 04:11:00,71.0,70.0,30.05,East,83,7.0,10.0,96,1.37,,,-99.99,,2013-05-31 08:11:00,
2013-05-31 04:22:00,71.0,69.0,30.04,East,86,8.0,11.0,94,1.37,,,-99.99,,2013-05-31 08:22:00,
2013-05-31 04:32:00,71.0,68.0,30.04,ESE,104,9.0,15.0,91,1.37,,,-99.99,,2013-05-31 08:32:00,
2013-05-31 04:42:00,71.0,68.0,30.04,ESE,104,9.0,15.0,91,1.37,,,-99.99,,2013-05-31 08:42:00,
2013-05-31 04:52:00,72.0,69.0,30.04,East,97,8.0,12.0,89,1.37,,,-99.99,,2013-05-31 08:52:00,
2013-05-31 05:01:00,72.0,68.0,30.04,East,97,8.0,16.0,88,1.37,,,-99.99,,2013-05-31 09:01:00,
2013-05-31 05:11:00,72.0,69.0,30.04,East,87,6.0,10.0,89,1.37,,,-99.99,,2013-05-31 09:11:00,
2013-05-31 05:21:00,72.0,69.0,30.04,East,87,6.0,10.0,89,1.37,,,-99.99,,2013-05-31 09:21:00,
2013-05-31 05:32:00,72.0,68.0,30.05,East,101,6.0,11.0,88,1.37,,,-99.99,,2013-05-31 09:32:00,
2013-05-31 05:43:00,72.0,68.0,30.05,East,101,6.0,11.0,88,1.37,,,-99.99,,2013-05-31 09:43:00,
2013-05-31 05:53:00,72.0,68.0,30.05,East,80,8.0,13.0,87,1.37,,,-99.99,,2013-05-31 09:53:00,
2013-05-31 06:02:00,72.0,68.0,30.05,ENE,77,8.0,12.0,88,1.37,,,-99.99,,2013-05-31 10:02:00,
2013-05-31 06:12:00,72.0,69.0,30.06,East,84,7.0,11.0,89,1.37,,,-99.99,,2013-05-31 10:12:00,
2013-05-31 06:22:00,72.0,69.0,30.06,East,84,7.0,11.0,89,1.37,,,-99.99,,2013-05-31 10:22:00,
2013-05-31 06:33:00,71.0,68.0,30.06,ENE,75,7.0,11.0,90,1.37,,,-99.99,,2013-05-31 10:33:00,
2013-05-31 06:42:00,71.0,68.0,30.06,ENE,75,7.0,11.0,90,1.37,,,-99.99,,2013-05-31 10:42:00,
2013-05-31 06:52:00,71.0,68.0,30.06,ENE,75,8.0,11.0,90,1.37,,,-99.99,,2013-05-31 10:52:00,
2013-05-31 07:02:00,71.0,69.0,30.06,East,82,7.0,12.0,92,1.37,,,-99.99,,2013-05-31 11:02:00,
2013-05-31 07:12:00,71.0,69.0,30.06,East,82,7.0,12.0,92,1.37,,,-99.99,,2013-05-31 11:12:00,
2013-05-31 07:22:00,71.0,68.0,30.06,ENE,77,8.0,12.0,91,1.37,,,-99.99,,2013-05-31 11:22:00,
2013-05-31 07:32:00,72.0,68.0,30.06,East,84,8.0,14.0,88,1.37,,,-99.99,,2013-05-31 11:32:00,
2013-05-31 07:42:00,72.0,68.0,30.06,East,84,8.0,14.0,88,1.37,,,-99.99,,2013-05-31 11:42:00,
2013-05-31 07:52:00,73.0,68.0,30.06,East,89,7.0,12.0,84,1.37,,,-99.99,,2013-05-31 11:52:00,
2013-05-31 08:01:00,74.0,68.0,30.06,ESE,122,7.0,12.0,81,1.37,,,-99.99,,2013-05-31 12:01:00,
2013-05-31 08:11:00,74.0,68.0,30.06,ESE,122,7.0,12.0,81,1.37,,,-99.99,,2013-05-31 12:11:00,
2013-05-31 08:22:00,75.0,68.0,30.07,East,93,7.0,12.0,79,1.37,,,-99.99,,2013-05-31 12:22:00,
2013-05-31 08:31:00,76.0,68.0,30.07,ESE,118,9.0,13.0,76,1.37,,,-99.99,,2013-05-31 12:31:00,
2013-05-31 08:42:00,76.0,68.0,30.07,ESE,118,9.0,13.0,76,1.37,,,-99.99,,2013-05-31 12:42:00,
2013-05-31 08:52:00,77.0,68.0,30.08,ESE,104,8.0,13.0,75,1.37,,,-99.99,,2013-05-31 12:52:00,
2013-05-31 09:01:00,79.0,70.0,30.09,East,97,8.0,15.0,73,1.37,,,-99.99,,2013-05-31 13:01:00,
2013-05-31 09:11:00,79.0,70.0,30.09,East,97,8.0,15.0,73,1.37,,,-99.99,,2013-05-31 13:11:00,
2013-05-31 09:21:00,80.0,70.0,30.08,ESE,104,10.0,18.0,71,1.37,,,-99.99,,2013-05-31 13:21:00,
2013-05-31 09:32:00,80.0,70.0,30.08,ESE,104,10.0,18.0,71,1.37,,,-99.99,,2013-05-31 13:32:00,
2013-05-31 09:42:00,80.0,70.0,30.08,ESE,104,10.0,18.0,71,1.37,,,-99.99,,2013-05-31 13:42:00,
2013-05-31 09:52:00,81.0,69.0,30.08,East,101,13.0,24.0,67,1.37,,,-99.99,,2013-05-31 13:52:00,
2013-05-31 10:02:00,81.0,69.0,30.08,East,101,14.0,22.0,67,1.37,,,-99.99,,2013-05-31 14:02:00,
2013-05-31 10:11:00,81.0,69.0,30.08,East,101,14.0,22.0,67,1.37,,,-99.99,,2013-05-31 14:11:00,
2013-05-31 10:21:00,82.0,69.0,30.08,ESE,103,12.0,18.0,66,1.37,,,-99.99,,2013-05-31 14:21:00,
2013-05-31 10:32:00,83.0,70.0,30.08,East,101,10.0,18.0,65,1.37,,,-99.99,,2013-05-31 14:32:00,
2013-05-31 10:42:00,83.0,70.0,30.08,East,101,10.0,18.0,65,1.37,,,-99.99,,2013-05-31 14:42:00,
2013-05-31 10:52:00,82.0,68.0,30.08,SE,132,13.0,21.0,63,1.37,,,-99.99,,2013-05-31 14:52:00,
2013-05-31 11:01:00,83.0,69.0,30.09,ESE,117,12.0,21.0,62,1.37,,,-99.99,,2013-05-31 15:01:00,
2013-05-31 11:11:00,83.0,70.0,30.09,SE,134,10.0,17.0,64,1.37,,,-99.99,,2013-05-31 15:11:00,
2013-05-31 11:21:00,83.0,70.0,30.09,SE,134,10.0,17.0,64,1.37,,,-99.99,,2013-05-31 15:21:00,
2013-05-31 11:33:00,83.0,70.0,30.09,East,91,10.0,16.0,64,1.37,,,-99.99,,2013-05-31 15:33:00,
2013-05-31 11:43:00,83.0,70.0,30.09,East,91,10.0,16.0,64,1.37,,,-99.99,,2013-05-31 15:43:00,
2013-05-31 11:53:00,83.0,69.0,30.09,ESE,105,10.0,16.0,62,1.37,,,-99.99,,2013-05-31 15:53:00,
2013-05-31 12:03:00,83.0,69.0,30.10,ESE,107,10.0,14.0,62,1.37,,,-99.99,,2013-05-31 16:03:00,
2013-05-31 12:12:00,85.0,68.0,30.09,East,83,10.0,17.0,57,1.37,,,-99.99,,2013-05-31 16:12:00,
2013-05-31 12:22:00,85.0,68.0,30.09,East,83,10.0,17.0,57,1.37,,,-99.99,,2013-05-31 16:22:00,
2013-05-31 12:33:00,87.0,69.0,30.08,East,89,10.0,16.0,55,1.37,,,-99.99,,2013-05-31 16:33:00,
2013-05-31 12:42:00,87.0,69.0,30.08,East,89,10.0,16.0,55,1.37,,,-99.99,,2013-05-31 16:42:00,
2013-05-31 12:52:00,87.0,69.0,30.08,ESE,107,11.0,18.0,55,1.37,,,-99.99,,2013-05-31 16:52:00,
2013-05-31 13:02:00,86.0,69.0,30.08,East,94,9.0,18.0,58,1.37,,,-99.99,,2013-05-31 17:02:00,
2013-05-31 13:12:00,86.0,69.0,30.08,East,94,9.0,18.0,58,1.37,,,-99.99,,2013-05-31 17:12:00,
2013-05-31 13:22:00,86.0,69.0,30.07,ESE,103,7.0,11.0,57,1.37,,,-99.99,,2013-05-31 17:22:00,
2013-05-31 13:32:00,86.0,68.0,30.07,ESE,110,10.0,18.0,55,1.37,,,-99.99,,2013-05-31 17:32:00,
2013-05-31 13:42:00,86.0,68.0,30.07,ESE,110,10.0,18.0,55,1.37,,,-99.99,,2013-05-31 17:42:00,
2013-05-31 13:52:00,85.0,70.0,30.07,East,90,17.0,24.0,61,1.37,,,-99.99,,2013-05-31 17:52:00,
2013-05-31 14:02:00,84.0,68.0,30.07,ENE,76,14.0,25.0,59,1.37,,,-99.99,,2013-05-31 18:02:00,
2013-05-31 14:12:00,85.0,69.0,30.07,East,94,11.0,20.0,59,1.37,,,-99.99,,2013-05-31 18:12:00,
2013-05-31 14:22:00,85.0,69.0,30.07,East,94,11.0,20.0,59,1.37,,,-99.99,,2013-05-31 18:22:00,
2013-05-31 14:32:00,85.0,69.0,30.07,ENE,75,13.0,22.0,58,1.37,,,-99.99,,2013-05-31 18:32:00,
2013-05-31 14:42:00,85.0,69.0,30.07,ENE,75,13.0,22.0,58,1.37,,,-99.99,,2013-05-31 18:42:00,
2013-05-31 14:52:00,84.0,68.0,30.06,ESE,103,14.0,23.0,59,1.37,,,-99.99,,2013-05-31 18:52:00,
2013-05-31 15:02:00,85.0,71.0,30.06,East,86,14.0,24.0,63,1.37,,,-99.99,,2013-05-31 19:02:00,
2013-05-31 15:11:00,85.0,71.0,30.06,East,86,14.0,24.0,63,1.37,,,-99.99,,2013-05-31 19:11:00,
2013-05-31 15:22:00,85.0,71.0,30.06,ENE,76,12.0,21.0,63,1.37,,,-99.99,,2013-05-31 19:22:00,
2013-05-31 15:32:00,83.0,69.0,30.06,East,100,13.0,20.0,62,1.37,,,-99.99,,2013-05-31 19:32:00,
2013-05-31 15:42:00,86.0,69.0,30.05,East,101,15.0,25.0,57,1.37,,,-99.99,,2013-05-31 19:42:00,
2013-05-31 15:52:00,86.0,69.0,30.05,East,101,15.0,25.0,57,1.37,,,-99.99,,2013-05-31 19:52:00,
2013-05-31 16:02:00,87.0,69.0,30.05,East,96,13.0,23.0,56,1.37,,,-99.99,,2013-05-31 20:02:00,
2013-05-31 16:11:00,87.0,69.0,30.05,East,96,13.0,23.0,56,1.37,,,-99.99,,2013-05-31 20:11:00,
2013-05-31 16:22:00,83.0,70.0,30.03,East,79,7.0,11.0,66,1.37,,,-99.99,,2013-05-31 20:22:00,
2013-05-31 16:32:00,83.0,69.0,30.03,ENE,72,8.0,17.0,62,1.37,,,-99.99,,2013-05-31 20:32:00,
2013-05-31 16:42:00,83.0,69.0,30.03,ENE,72,8.0,17.0,62,1.37,,,-99.99,,2013-05-31 20:42:00,
2013-05-31 16:52:00,84.0,68.0,30.03,ESE,105,9.0,16.0,59,1.37,,,-99.99,,2013-05-31 20:52:00,
2013-05-31 17:01:00,87.0,67.0,30.03,ENE,75,14.0,24.0,52,1.37,,,-99.99,,2013-05-31 21:01:00,
2013-05-31 17:11:00,87.0,67.0,30.03,ENE,75,14.0,24.0,52,1.37,,,-99.99,,2013-05-31 21:11:00,
2013-05-31 17:22:00,85.0,68.0,30.03,East,101,11.0,19.0,57,1.37,,,-99.99,,2013-05-31 21:22:00,
2013-05-31 17:33:00,86.0,68.0,30.03,ENE,70,15.0,26.0,55,1.37,,,-99.99,,2013-05-31 21:33:00,
2013-05-31 17:42:00,85.0,68.0,30.03,ENE,60,13.0,23.0,56,1.37,,,-99.99,,2013-05-31 21:42:00,
2013-05-31 17:54:00,85.0,68.0,30.03,ENE,60,13.0,23.0,56,1.37,,,-99.99,,2013-05-31 21:54:00,
2013-05-31 18:02:00,85.0,67.0,30.03,East,80,13.0,22.0,55,1.37,,,-99.99,,2013-05-31 22:02:00,
2013-05-31 18:12:00,85.0,68.0,30.03,East,80,12.0,18.0,56,1.37,,,-99.99,,2013-05-31 22:12:00,
2013-05-31 18:22:00,85.0,68.0,30.03,East,80,12.0,18.0,56,1.37,,,-99.99,,2013-05-31 22:22:00,
2013-05-31 18:33:00,86.0,67.0,30.03,East,84,13.0,22.0,54,1.37,,,-99.99,,2013-05-31 22:33:00,
2013-05-31 18:42:00,83.0,67.0,30.03,East,94,15.0,24.0,59,1.37,,,-99.99,,2013-05-31 22:42:00,
2013-05-31 18:53:00,83.0,67.0,30.03,East,94,15.0,24.0,59,1.37,,,-99.99,,2013-05-31 22:53:00,
2013-05-31 19:02:00,83.0,67.0,30.03,East,80,10.0,19.0,59,1.37,,,-99.99,,2013-05-31 23:02:00,
2013-05-31 19:12:00,83.0,68.0,30.04,East,82,12.0,21.0,60,1.37,,,-99.99,,2013-05-31 23:12:00,
2013-05-31 19:21:00,83.0,68.0,30.04,East,82,12.0,21.0,60,1.37,,,-99.99,,2013-05-31 23:21:00,
2013-05-31 19:32:00,82.0,68.0,30.03,East,91,12.0,18.0,62,1.37,,,-99.99,,2013-05-31 23:32:00,
2013-05-31 19:42:00,82.0,69.0,30.04,East,79,13.0,21.0,64,1.37,,,-99.99,,2013-05-31 23:42:00,
2013-05-31 19:52:00,82.0,69.0,30.04,East,79,13.0,21.0,64,1.37,,,-99.99,,2013-05-31 23:52:00,
2013-05-31 20:01:00,80.0,69.0,30.05,East,83,12.0,19.0,69,1.37,,,-99.99,,2013-06-01 00:01:00,
2013-05-31 20:12:00,79.0,69.0,30.05,ESE,103,10.0,20.0,72,1.37,,,-99.99,,2013-06-01 00:12:00,
2013-05-31 20:22:00,79.0,69.0,30.05,ESE,103,10.0,20.0,72,1.37,,,-99.99,,2013-06-01 00:22:00,
2013-05-31 20:32:00,78.0,69.0,30.06,East,89,11.0,18.0,74,1.37,,,-99.99,,2013-06-01 00:32:00,
2013-05-31 20:42:00,78.0,69.0,30.06,ENE,75,10.0,16.0,75,1.37,,,-99.99,,2013-06-01 00:42:00,
2013-05-31 20:52:00,78.0,69.0,30.06,ENE,75,10.0,16.0,75,1.37,,,-99.99,,2013-06-01 00:52:00,
2013-05-31 21:01:00,77.0,69.0,30.06,East,89,8.0,14.0,76,1.37,,,-99.99,,2013-06-01 01:01:00,
2013-05-31 21:11:00,77.0,69.0,30.07,East,90,8.0,12.0,77,1.37,,,-99.99,,2013-06-01 01:11:00,
2013-05-31 21:22:00,77.0,69.0,30.07,East,90,8.0,12.0,77,1.37,,,-99.99,,2013-06-01 01:22:00,
2013-05-31 21:32:00,77.0,70.0,30.07,ENE,76,7.0,11.0,78,1.37,,,-99.99,,2013-06-01 01:32:00,
2013-05-31 21:42:00,76.0,69.0,30.07,East,90,9.0,13.0,78,1.37,,,-99.99,,2013-06-01 01:42:00,
2013-05-31 21:52:00,76.0,69.0,30.07,East,90,9.0,13.0,78,1.37,,,-99.99,,2013-06-01 01:52:00,
2013-05-31 22:01:00,76.0,69.0,30.07,ENE,75,8.0,12.0,79,1.37,,,-99.99,,2013-06-01 02:01:00,
2013-05-31 22:11:00,76.0,69.0,30.08,East,86,7.0,12.0,80,1.37,,,-99.99,,2013-06-01 02:11:00,
2013-05-31 22:21:00,76.0,69.0,30.08,East,86,7.0,12.0,80,1.37,,,-99.99,,2013-06-01 02:21:00,
2013-05-31 22:32:00,76.0,70.0,30.08,ESE,104,6.0,8.0,81,1.37,,,-99.99,,2013-06-01 02:32:00,
2013-05-31 22:42:00,75.0,69.0,30.08,ENE,68,6.0,10.0,82,1.37,,,-99.99,,2013-06-01 02:42:00,
2013-05-31 22:52:00,75.0,69.0,30.08,ENE,68,6.0,10.0,82,1.37,,,-99.99,,2013-06-01 02:52:00,
2013-05-31 23:02:00,75.0,69.0,30.08,East,84,6.0,9.0,82,1.37,,,-99.99,,2013-06-01 03:02:00,
2013-05-31 23:11:00,75.0,69.0,30.07,ENE,70,7.0,11.0,83,1.37,,,-99.99,,2013-06-01 03:11:00,
2013-05-31 23:21:00,75.0,69.0,30.07,ENE,70,7.0,11.0,83,1.37,,,-99.99,,2013-06-01 03:21:00,
2013-05-31 23:33:00,75.0,70.0,30.08,East,90,6.0,8.0,84,1.37,,,-99.99,,2013-06-01 03:33:00,
2013-05-31 23:43:00,74.0,70.0,30.07,ENE,72,5.0,8.0,86,1.37,,,-99.99,,2013-06-01 03:43:00,
2013-05-31 23:53:00,74.0,70.0,30.07,ENE,72,5.0,8.0,86,1.37,,,-99.99,,2013-06-01 03:53:00,